Arrowbear Lake, CA

7:37 PM PDT on July 06, 2015 (GMT -0700)
Running Springs, CA | | Change Station
CLOSE
Current Station
Personal Weather Station
Location: Running Springs, CA
Elevation: 6283 ft
Nearby Weather Stations
Active Advisory: Flash Flood Warning Active Notice: Record Report

Elev 6283 ft 34.22 °N, 117.12 °W | Updated 7 minutes ago

Mostly Cloudy
Mostly Cloudy
67.5 °F
Feels Like 67.5 °F
N
1.0
Wind Variable Wind from SE
Gusts 3.0 mph

Today
High -- | Low -- °F
--% Chance of Precip.
Yesterday
High -- | Low -- °F
Precip. -- in
5:42 AM 8:03 PM
Waning Gibbous, 70% visible
Pressure 30.27 in
Visibility 10.0 miles
Clouds Clear
Dew Point 52 °F
Humidity 58%
Rainfall 0.00 in
Snow Depth Not available.
UV 0.0 out of 12
Pollen 3.10 out of 12
Air Quality Not available.
Flu Activity Not available.
METAR KL35 070215Z AUTO 25005KT 10SM CLR 20/09 A3027 RMK AO2

More Conditions Fewer Conditions

Pressure 30.27 in
Visibility 10.0 miles
Clouds Clear
Dew Point 52 °F
Humidity 58%
Rainfall 0.00 in
Snow Depth Not available.
UV 0.0 out of 12
Pollen 3.10 out of 12
Air Quality Not available.
Flu Activity Not available.
METAR KL35 070215Z AUTO 25005KT 10SM CLR 20/09 A3027 RMK AO2

More Conditions Fewer Conditions

10-Day Weather Forecast

×

Almanac

Astronomy

Jul. 06, 2015 Rise Set
Actual Time
Civil Twilight
Nautical Twilight
Astronomical Twilight
Moon
Length of Visible Light
Length of Day
Tomorrow will be .
, % of the Moon is Illuminated

Today's Extremes

State Highs State Lows

Community

WunderPhotos

Upload Photos

1,835,692 photos uploaded!

WunderBlogs® & News

Nearby

Air Quality

  Air Quality AQ Index Pollutant
Not available.

Snow Depth

Station Depth Elevation

Earthquake Activity

City Distance Mag. Time & Date
Minimum magnitude displayed is 2.5.

Coastal Water Temperatures

Place Temperature

Stations

Nearby Weather Stations

Station Location Temp. Windchill Dew Point Humidity Wind Precip. Elev Updated Type
                   
Flash Flood Warning
Statement as of 6:47 PM PDT on July 06, 2015

The National Weather Service in Las Vegas has issued a

* Flash Flood Warning for...
east central San Bernardino County in Southern California...

* until 945 PM PDT

* at 646 PM PDT... Doppler radar indicated a thunderstorm producing
heavy rain over Highway 95 and I-40. The storm is nearly
stationary. Flash flooding is expected to begin shortly in the
warned area.

* Some locations that will experience flooding include...
Needles and Highway 95 and I-40.

This includes Interstate 40 in California between mile markers 120
and 140.

Precautionary/preparedness actions...

Flash flooding is expected on roads... in normally dry washes and low
lying areas. Never try to cross a flooded Road or enter a flood
channel. Turn around... dont drown! Report flooding to the Las Vegas
National Weather Service via facebook or twitter.


Lat... Lon 3480 11463 3477 11498 3496 11501 3501 11466


Pullin